Time;durP1;ratioP1;P1;durP2;ratioP2;P2;SDS_P1;SDS_P2;PMS_P1;PMS_P2;Temp;Humidity;BMP_temperature;BMP_pressure;BME280_temperature;BME280_humidity;BME280_pressure;Samples;Min_cycle;Max_cycle;Signal;HPM_P1;HPM_P2
2023/09/16 00:01:52;;;;;;;24.95;20.98;;;11.00;99.90;;;;;;5157400;27;20062;-26
2023/09/16 00:04:18;;;;;;;26.10;22.05;;;11.00;99.90;;;;;;5157022;27;20050;-28
2023/09/16 00:06:43;;;;;;;29.75;23.27;;;11.00;99.90;;;;;;5138638;27;20369;-27
2023/09/16 00:09:09;;;;;;;33.05;25.15;;;11.00;99.90;;;;;;5157121;27;20054;-27
2023/09/16 00:11:36;;;;;;;29.70;24.25;;;11.00;99.90;;;;;;5156839;27;20042;-27
2023/09/16 00:14:02;;;;;;;27.60;20.88;;;11.00;99.90;;;;;;5156518;27;20353;-27
2023/09/16 00:16:29;;;;;;;16.33;14.48;;;10.90;99.90;;;;;;5157610;27;20046;-27
2023/09/16 00:18:55;;;;;;;17.55;14.10;;;10.70;99.90;;;;;;5157303;27;20053;-27
2023/09/16 00:21:22;;;;;;;20.58;16.50;;;10.50;99.90;;;;;;5156717;27;20046;-27
2023/09/16 00:23:51;;;;;;;20.58;16.92;;;10.40;99.90;;;;;;5157228;27;20046;-28
2023/09/16 00:26:18;;;;;;;24.80;18.63;;;10.30;99.90;;;;;;5156721;27;20042;-27
2023/09/16 00:28:43;;;;;;;25.65;20.52;;;10.40;99.90;;;;;;5156602;27;20143;-27
2023/09/16 00:31:11;;;;;;;29.02;21.95;;;10.60;99.90;;;;;;5155542;27;20089;-27
2023/09/16 00:33:37;;;;;;;31.08;23.88;;;10.60;99.90;;;;;;5156410;27;20492;-27
2023/09/16 00:36:03;;;;;;;32.13;24.38;;;10.70;99.90;;;;;;5157301;27;20118;-27
2023/09/16 00:38:29;;;;;;;31.10;24.63;;;10.80;99.90;;;;;;5156433;27;20050;-28
2023/09/16 00:40:54;;;;;;;30.30;25.17;;;10.80;99.90;;;;;;5156356;27;20476;-27
2023/09/16 00:43:20;;;;;;;43.50;29.38;;;10.80;99.90;;;;;;5156878;27;20041;-27
2023/09/16 00:45:46;;;;;;;40.33;30.23;;;10.90;99.90;;;;;;5156314;27;20046;-27
2023/09/16 00:48:14;;;;;;;41.17;30.52;;;10.90;99.90;;;;;;5138357;27;20042;-26
2023/09/16 00:50:41;;;;;;;43.60;31.98;;;10.90;99.90;;;;;;5137674;27;20077;-27
2023/09/16 00:53:08;;;;;;;44.17;31.70;;;10.90;99.90;;;;;;5156156;27;20045;-27
2023/09/16 00:55:33;;;;;;;41.17;28.88;;;10.90;99.90;;;;;;5156126;27;20095;-27
2023/09/16 00:57:59;;;;;;;34.55;24.65;;;10.80;99.90;;;;;;5156188;27;20042;-27
2023/09/16 01:00:26;;;;;;;37.03;28.25;;;10.70;99.90;;;;;;5155912;27;20520;-27
2023/09/16 01:02:56;;;;;;;32.38;25.25;;;10.70;99.90;;;;;;5116906;27;1125507;-27
2023/09/16 01:05:22;;;;;;;47.47;32.75;;;10.70;99.90;;;;;;5157552;27;20404;-27
2023/09/16 01:07:47;;;;;;;46.17;33.30;;;10.70;99.90;;;;;;5156910;27;20039;-27
2023/09/16 01:10:18;;;;;;;61.13;39.92;;;10.70;99.90;;;;;;5156827;27;20050;-27
2023/09/16 01:12:45;;;;;;;51.17;36.40;;;10.80;99.90;;;;;;5157468;27;20125;-27
2023/09/16 01:15:13;;;;;;;43.45;33.47;;;10.90;99.90;;;;;;5156123;27;20388;-27
2023/09/16 01:18:04;;;;;;;46.10;31.48;;;10.90;99.90;;;;;;5157294;27;20082;-27
2023/09/16 01:20:30;;;;;;;43.67;33.35;;;11.00;99.90;;;;;;5155676;27;20133;-28
2023/09/16 01:22:56;;;;;;;54.70;38.92;;;11.00;99.90;;;;;;5156603;27;20038;-26
2023/09/16 01:25:26;;;;;;;45.42;35.38;;;11.00;99.90;;;;;;5156488;27;20429;-27
2023/09/16 01:27:52;;;;;;;46.53;33.35;;;11.00;99.90;;;;;;5157370;27;20042;-27
2023/09/16 01:30:18;;;;;;;34.42;26.38;;;10.90;99.90;;;;;;5155903;27;20487;-26
2023/09/16 01:33:25;;;;;;;49.25;33.45;;;10.90;99.90;;;;;;5156334;27;20046;-28
2023/09/16 01:35:59;;;;;;;39.17;30.55;;;10.90;99.90;;;;;;5153852;27;20054;-27
2023/09/16 01:38:27;;;;;;;32.30;24.55;;;10.80;99.90;;;;;;5156038;27;20492;-27
2023/09/16 01:40:54;;;;;;;33.22;22.92;;;10.80;99.90;;;;;;5156321;27;20046;-26
2023/09/16 01:43:20;;;;;;;25.55;19.98;;;10.80;99.90;;;;;;5154994;27;20121;-27
2023/09/16 01:45:46;;;;;;;33.45;25.85;;;10.80;99.90;;;;;;5156198;27;20155;-26
2023/09/16 01:48:14;;;;;;;30.15;23.52;;;10.80;99.90;;;;;;5154887;27;20065;-27
2023/09/16 01:50:40;;;;;;;41.17;27.52;;;10.80;99.90;;;;;;5121153;27;20046;-27
2023/09/16 01:53:07;;;;;;;47.35;31.67;;;10.80;99.90;;;;;;5120641;27;20050;-27
2023/09/16 01:55:33;;;;;;;37.92;28.70;;;10.80;99.90;;;;;;5156017;27;20043;-26
2023/09/16 01:57:59;;;;;;;42.65;29.17;;;10.80;99.90;;;;;;5155975;27;20050;-27
2023/09/16 02:00:25;;;;;;;41.75;30.08;;;10.90;99.90;;;;;;5137661;27;20541;-26
2023/09/16 02:02:51;;;;;;;33.70;24.63;;;10.80;99.90;;;;;;5155668;27;20050;-27
2023/09/16 02:05:16;;;;;;;27.73;20.27;;;10.80;99.90;;;;;;5154866;27;20392;-27
2023/09/16 02:07:42;;;;;;;20.67;15.73;;;10.70;99.90;;;;;;5155746;27;20046;-26
2023/09/16 02:10:09;;;;;;;13.55;10.55;;;10.50;99.90;;;;;;5154610;27;20069;-26
2023/09/16 02:12:36;;;;;;;14.57;11.43;;;10.30;99.90;;;;;;5156587;27;20047;-26
2023/09/16 02:15:07;;;;;;;10.40;9.27;;;10.20;99.90;;;;;;5155620;27;20078;-27
2023/09/16 02:17:33;;;;;;;12.05;8.10;;;9.90;99.90;;;;;;5155113;27;20038;-27
2023/09/16 02:19:58;;;;;;;8.02;7.03;;;9.80;99.90;;;;;;5155921;27;20126;-27
2023/09/16 02:22:24;;;;;;;7.90;7.07;;;9.70;99.90;;;;;;5137157;27;20392;-27
2023/09/16 02:24:50;;;;;;;7.53;6.72;;;9.50;99.90;;;;;;5154803;27;20090;-27
2023/09/16 02:27:16;;;;;;;9.40;8.40;;;9.40;99.90;;;;;;5155568;27;20125;-27
2023/09/16 02:29:42;;;;;;;19.98;13.75;;;9.40;99.90;;;;;;5154830;27;20046;-27
2023/09/16 02:32:08;;;;;;;16.23;14.13;;;9.30;99.90;;;;;;5155180;27;20057;-26
2023/09/16 02:34:36;;;;;;;19.27;15.20;;;9.30;99.90;;;;;;5155390;27;20046;-26
2023/09/16 02:37:02;;;;;;;24.55;19.10;;;9.40;99.90;;;;;;5154294;27;20057;-27
2023/09/16 02:39:27;;;;;;;32.90;23.17;;;9.60;99.90;;;;;;5155384;27;20045;-27
2023/09/16 02:41:53;;;;;;;37.90;27.08;;;9.70;99.90;;;;;;5155947;27;20039;-27
2023/09/16 02:44:19;;;;;;;29.60;22.13;;;9.80;99.90;;;;;;5155619;27;20491;-26
2023/09/16 02:46:45;;;;;;;25.75;19.35;;;9.80;99.90;;;;;;5154304;27;20046;-26
2023/09/16 02:49:12;;;;;;;12.40;10.75;;;9.80;99.90;;;;;;5155133;27;20047;-26
2023/09/16 02:51:38;;;;;;;37.08;11.52;;;9.70;99.90;;;;;;5155242;27;20129;-26
2023/09/16 02:54:06;;;;;;;13.70;10.25;;;9.60;99.90;;;;;;5153965;27;20050;-27
2023/09/16 02:56:32;;;;;;;22.38;17.88;;;9.50;99.90;;;;;;5156080;27;20042;-26
2023/09/16 02:58:57;;;;;;;35.97;25.30;;;9.50;99.90;;;;;;5155251;27;20050;-26
2023/09/16 03:01:23;;;;;;;29.45;23.08;;;9.60;99.90;;;;;;5154856;27;20065;-26
2023/09/16 03:03:49;;;;;;;49.35;33.10;;;9.60;99.90;;;;;;5153521;27;20058;-26
2023/09/16 03:06:15;;;;;;;43.35;31.30;;;9.80;99.90;;;;;;5155098;27;20194;-26
2023/09/16 03:08:40;;;;;;;35.50;27.85;;;9.70;99.90;;;;;;5153920;27;20510;-26
2023/09/16 03:11:06;;;;;;;30.60;23.48;;;9.90;99.90;;;;;;5155687;27;20047;-28
2023/09/16 03:13:32;;;;;;;28.17;22.15;;;9.90;99.90;;;;;;5154932;27;20125;-26
2023/09/16 03:16:21;;;;;;;28.30;21.33;;;9.80;99.90;;;;;;5155046;27;20046;-26
2023/09/16 03:18:49;;;;;;;19.13;15.68;;;9.80;99.90;;;;;;5155599;27;20176;-26
2023/09/16 03:21:16;;;;;;;17.45;14.93;;;9.80;99.90;;;;;;5155080;27;20065;-26
2023/09/16 03:23:43;;;;;;;25.58;18.50;;;9.70;99.90;;;;;;5154959;27;20135;-27
2023/09/16 03:26:10;;;;;;;24.63;19.30;;;9.70;99.90;;;;;;5153421;27;20042;-27
2023/09/16 03:28:38;;;;;;;19.30;15.82;;;9.60;99.90;;;;;;5154986;27;20111;-26
2023/09/16 03:31:03;;;;;;;25.85;21.45;;;9.60;99.90;;;;;;5154925;27;20143;-26
2023/09/16 03:33:29;;;;;;;36.70;25.42;;;9.60;99.90;;;;;;5155406;27;20114;-26
2023/09/16 03:35:55;;;;;;;30.30;23.58;;;9.60;99.90;;;;;;5154828;27;20049;-26
2023/09/16 03:38:22;;;;;;;30.38;24.65;;;9.60;99.90;;;;;;5157376;27;20073;-26
2023/09/16 03:40:50;;;;;;;45.65;32.42;;;9.60;99.90;;;;;;5159199;27;20039;-27
2023/09/16 03:43:17;;;;;;;45.55;31.95;;;9.70;99.90;;;;;;5158664;27;20111;-26
2023/09/16 03:45:43;;;;;;;41.90;30.30;;;9.70;99.90;;;;;;5158222;27;20042;-26
2023/09/16 03:48:09;;;;;;;64.72;39.50;;;9.70;99.90;;;;;;5157492;27;20050;-26
2023/09/16 03:50:35;;;;;;;68.78;43.38;;;9.80;99.90;;;;;;5122624;27;20099;-27
2023/09/16 03:53:01;;;;;;;66.53;44.72;;;9.80;99.90;;;;;;5158370;27;20046;-27
2023/09/16 03:55:26;;;;;;;58.83;39.42;;;9.80;99.90;;;;;;5158376;27;20046;-26
2023/09/16 03:57:52;;;;;;;66.18;45.08;;;9.90;99.90;;;;;;5158280;27;20043;-26
2023/09/16 04:00:18;;;;;;;75.18;45.17;;;9.90;99.90;;;;;;5158574;27;20488;-27
2023/09/16 04:02:43;;;;;;;71.50;46.83;;;10.00;99.90;;;;;;5158408;27;20051;-26
2023/09/16 04:05:10;;;;;;;68.13;45.40;;;10.10;99.90;;;;;;5158096;27;20051;-26
2023/09/16 04:07:36;;;;;;;62.17;42.20;;;10.10;99.90;;;;;;5140442;27;20066;-26
2023/09/16 04:10:03;;;;;;;58.92;41.78;;;10.10;99.90;;;;;;5140192;27;20082;-26
2023/09/16 04:12:29;;;;;;;64.20;43.70;;;10.10;99.90;;;;;;5158068;27;20180;-26
2023/09/16 04:14:54;;;;;;;56.83;37.42;;;10.10;99.90;;;;;;5158263;27;20082;-26
2023/09/16 04:17:21;;;;;;;48.13;33.63;;;10.10;99.90;;;;;;5157235;27;20047;-26
2023/09/16 04:19:46;;;;;;;53.92;36.55;;;10.00;99.90;;;;;;5157944;27;20043;-27
2023/09/16 04:22:12;;;;;;;50.42;35.50;;;10.00;99.90;;;;;;5139431;27;20111;-26
2023/09/16 04:24:38;;;;;;;45.17;33.40;;;9.90;99.90;;;;;;5158299;27;20049;-26
2023/09/16 04:27:03;;;;;;;48.42;34.30;;;9.90;99.90;;;;;;5157723;27;20374;-26
2023/09/16 04:29:29;;;;;;;47.92;33.38;;;9.80;99.90;;;;;;5158248;27;20049;-26
2023/09/16 04:31:55;;;;;;;39.60;29.85;;;9.80;99.90;;;;;;5157653;27;20094;-26
2023/09/16 04:34:21;;;;;;;24.75;21.80;;;9.80;99.90;;;;;;5157526;27;20042;-26
2023/09/16 04:36:48;;;;;;;20.75;18.10;;;9.60;99.90;;;;;;5156652;27;20047;-26
2023/09/16 04:39:15;;;;;;;26.73;21.42;;;9.50;99.90;;;;;;5156319;27;20495;-26
2023/09/16 04:41:40;;;;;;;37.15;26.10;;;9.30;99.90;;;;;;5139230;27;20054;-26
2023/09/16 04:44:08;;;;;;;26.17;20.48;;;9.20;99.90;;;;;;5156277;27;20035;-26
2023/09/16 04:46:34;;;;;;;20.08;16.65;;;9.10;99.90;;;;;;5157344;27;20039;-26
2023/09/16 04:48:59;;;;;;;15.38;13.88;;;9.00;99.90;;;;;;5155977;27;20057;-26
2023/09/16 04:51:25;;;;;;;18.08;14.75;;;8.90;99.90;;;;;;5157517;27;20055;-26
2023/09/16 04:53:51;;;;;;;21.77;18.27;;;8.70;99.90;;;;;;5139625;27;20429;-26
2023/09/16 04:56:17;;;;;;;20.88;17.20;;;8.70;99.90;;;;;;5157144;27;20400;-26
2023/09/16 04:58:43;;;;;;;38.58;27.00;;;8.80;99.90;;;;;;5157121;27;20088;-26
2023/09/16 05:01:11;;;;;;;29.00;23.23;;;8.90;99.90;;;;;;5155823;27;20066;-26
2023/09/16 05:03:37;;;;;;;23.27;19.95;;;9.00;99.90;;;;;;5157309;27;20050;-27
2023/09/16 05:06:02;;;;;;;16.77;15.07;;;9.00;99.90;;;;;;5157539;27;20047;-27
2023/09/16 05:08:28;;;;;;;14.60;12.38;;;8.90;99.90;;;;;;5156625;27;20096;-26
2023/09/16 05:10:55;;;;;;;12.43;11.13;;;8.70;99.90;;;;;;5156964;27;20491;-26
2023/09/16 05:13:21;;;;;;;75.55;15.00;;;8.60;99.90;;;;;;5157320;27;20425;-26
2023/09/16 05:15:48;;;;;;;31.90;12.35;;;8.40;99.90;;;;;;5155854;27;20096;-26
2023/09/16 05:18:14;;;;;;;12.18;11.07;;;8.30;99.90;;;;;;5155473;27;20121;-26
2023/09/16 05:20:40;;;;;;;16.02;14.32;;;8.30;99.90;;;;;;5156723;27;20050;-26
2023/09/16 05:23:06;;;;;;;15.98;14.27;;;8.20;99.90;;;;;;5156659;27;20494;-26
2023/09/16 05:25:31;;;;;;;20.02;16.65;;;8.20;99.90;;;;;;5155420;27;20539;-26
2023/09/16 05:27:57;;;;;;;17.13;15.52;;;8.20;99.90;;;;;;5155318;27;20042;-26
2023/09/16 05:30:23;;;;;;;18.15;16.30;;;8.20;99.90;;;;;;5156552;27;20084;-26
2023/09/16 05:32:48;;;;;;;15.18;13.68;;;8.20;99.90;;;;;;5156788;27;20511;-26
2023/09/16 05:35:14;;;;;;;19.85;16.27;;;8.30;99.90;;;;;;5137963;27;20077;-26
2023/09/16 05:37:40;;;;;;;26.67;14.43;;;8.20;99.90;;;;;;5156344;27;20054;-27
2023/09/16 05:40:06;;;;;;;43.70;18.38;;;8.30;99.90;;;;;;5157123;27;20057;-26
2023/09/16 05:42:32;;;;;;;18.52;15.27;;;8.30;99.90;;;;;;5155084;27;20046;-26
2023/09/16 05:45:00;;;;;;;16.33;14.63;;;8.30;99.90;;;;;;5156228;27;20388;-26
2023/09/16 05:47:29;;;;;;;19.70;17.55;;;8.40;99.90;;;;;;5156806;27;20066;-26
2023/09/16 05:49:55;;;;;;;24.42;20.02;;;8.50;99.90;;;;;;5155936;27;20089;-27
2023/09/16 05:52:20;;;;;;;20.63;18.52;;;8.60;99.90;;;;;;5156116;27;20074;-26
2023/09/16 05:54:46;;;;;;;16.92;15.18;;;8.70;99.90;;;;;;5156269;27;20046;-26
2023/09/16 05:57:12;;;;;;;20.65;18.10;;;8.80;99.90;;;;;;5154853;27;20043;-26
2023/09/16 05:59:38;;;;;;;18.30;16.42;;;8.90;99.90;;;;;;5155148;27;20134;-26
2023/09/16 06:02:04;;;;;;;21.70;19.52;;;8.90;99.90;;;;;;5155662;27;20085;-25
2023/09/16 06:04:30;;;;;;;18.33;16.15;;;9.00;99.90;;;;;;5156193;27;20097;-26
2023/09/16 06:06:56;;;;;;;30.17;23.92;;;9.10;99.90;;;;;;5155921;27;20042;-26
2023/09/16 06:09:22;;;;;;;22.48;20.17;;;9.30;99.90;;;;;;5155475;27;20521;-27
2023/09/16 06:11:47;;;;;;;25.05;22.42;;;9.40;99.90;;;;;;5155779;27;20043;-26
2023/09/16 06:14:13;;;;;;;41.20;30.73;;;9.60;99.90;;;;;;5155546;27;20081;-26
2023/09/16 06:16:39;;;;;;;27.60;24.70;;;9.70;99.90;;;;;;5156290;27;20445;-26
2023/09/16 06:19:04;;;;;;;22.48;19.38;;;9.80;99.90;;;;;;5155386;27;20043;-26
2023/09/16 06:21:30;;;;;;;29.65;26.08;;;9.90;99.90;;;;;;5154336;27;20062;-26
2023/09/16 06:23:57;;;;;;;25.27;22.73;;;9.90;99.90;;;;;;5156201;27;20460;-26
2023/09/16 06:26:23;;;;;;;29.85;24.92;;;10.00;99.90;;;;;;5155140;27;20057;-26
2023/09/16 06:28:49;;;;;;;31.00;26.52;;;10.00;99.90;;;;;;5154552;27;20054;-26
2023/09/16 06:31:15;;;;;;;31.20;27.35;;;10.20;99.90;;;;;;5155767;27;20039;-26
2023/09/16 06:33:41;;;;;;;33.47;28.25;;;10.30;99.90;;;;;;5155411;27;20039;-27
2023/09/16 06:36:07;;;;;;;48.13;35.30;;;10.40;99.90;;;;;;5156260;27;20049;-26
2023/09/16 06:38:33;;;;;;;64.18;43.35;;;10.60;99.90;;;;;;5155444;27;20518;-26
2023/09/16 06:40:58;;;;;;;62.45;44.38;;;10.90;99.90;;;;;;5154139;27;20096;-26
2023/09/16 06:43:24;;;;;;;60.72;44.42;;;11.10;99.90;;;;;;5154238;27;20047;-26
2023/09/16 06:45:52;;;;;;;71.20;50.13;;;11.40;99.90;;;;;;5154116;27;20103;-26
2023/09/16 06:48:18;;;;;;;86.93;55.75;;;11.60;99.90;;;;;;5155213;27;20121;-26
2023/09/16 06:50:46;;;;;;;73.72;52.70;;;11.90;99.90;;;;;;5155263;27;20548;-26
2023/09/16 06:53:12;;;;;;;74.50;52.53;;;12.10;99.90;;;;;;5154159;27;20053;-27
2023/09/16 06:55:37;;;;;;;70.80;51.65;;;12.30;99.90;;;;;;5136670;27;20484;-27
2023/09/16 06:58:07;;;;;;;75.30;52.80;;;12.40;99.90;;;;;;5155204;27;20038;-26
2023/09/16 07:00:34;;;;;;;66.10;49.60;;;12.50;99.90;;;;;;5156064;27;20109;-27
2023/09/16 07:03:05;;;;;;;60.90;46.00;;;12.60;99.90;;;;;;5155385;27;20112;-26
2023/09/16 07:05:36;;;;;;;56.95;43.65;;;12.80;99.90;;;;;;5154886;27;20388;-27
2023/09/16 07:08:07;;;;;;;58.60;45.17;;;12.90;99.90;;;;;;5153983;27;20046;-27
2023/09/16 07:10:35;;;;;;;52.63;38.30;;;13.00;99.90;;;;;;5155781;27;20053;-27
2023/09/16 07:13:04;;;;;;;53.55;37.92;;;13.10;99.90;;;;;;5157226;27;20053;-26
2023/09/16 07:15:35;;;;;;;48.88;39.05;;;13.30;99.90;;;;;;5140912;27;20119;-27
2023/09/16 07:18:04;;;;;;;44.40;37.15;;;13.40;99.90;;;;;;5159159;27;20050;-27
2023/09/16 07:20:32;;;;;;;42.08;36.35;;;13.50;99.90;;;;;;5159049;27;20047;-27
2023/09/16 07:22:57;;;;;;;40.70;33.83;;;13.60;99.90;;;;;;5158932;27;20074;-26
2023/09/16 07:25:25;;;;;;;40.72;34.53;;;13.70;99.90;;;;;;5158955;27;20074;-27
2023/09/16 07:27:53;;;;;;;39.15;32.92;;;13.90;99.90;;;;;;5159490;27;20043;-27
2023/09/16 07:30:22;;;;;;;34.60;30.75;;;14.00;99.90;;;;;;5158889;27;20510;-27
2023/09/16 07:32:49;;;;;;;34.70;28.60;;;14.10;99.90;;;;;;5159410;27;20129;-27
2023/09/16 07:35:15;;;;;;;31.00;27.40;;;14.20;99.90;;;;;;5158090;27;20126;-27
2023/09/16 07:37:48;;;;;;;28.80;25.65;;;14.40;99.90;;;;;;5158982;27;20471;-27
2023/09/16 07:40:14;;;;;;;28.20;24.17;;;14.50;99.90;;;;;;5158726;27;20129;-27
2023/09/16 07:42:40;;;;;;;26.42;23.63;;;14.70;99.90;;;;;;5159216;27;20085;-27
2023/09/16 07:45:06;;;;;;;25.63;20.92;;;14.80;99.90;;;;;;5158626;27;20468;-27
2023/09/16 07:47:32;;;;;;;27.25;21.80;;;15.00;99.90;;;;;;5158503;27;20043;-27
2023/09/16 07:50:03;;;;;;;22.92;19.58;;;15.10;99.90;;;;;;5157210;27;20054;-27
2023/09/16 07:52:29;;;;;;;23.92;20.83;;;15.30;99.90;;;;;;5158857;27;20073;-27
2023/09/16 07:54:57;;;;;;;20.92;18.67;;;15.40;99.90;;;;;;5158342;27;20045;-27
2023/09/16 07:57:23;;;;;;;24.15;20.55;;;15.50;99.90;;;;;;5158357;27;20476;-27
2023/09/16 07:59:51;;;;;;;21.10;18.85;;;15.70;99.90;;;;;;5158338;27;20068;-27
2023/09/16 08:02:17;;;;;;;22.95;18.23;;;15.80;99.90;;;;;;5158854;27;20099;-27
2023/09/16 08:04:43;;;;;;;19.83;17.15;;;15.90;99.90;;;;;;5157724;27;20089;-27
2023/09/16 08:07:08;;;;;;;20.42;18.25;;;16.00;99.90;;;;;;5156987;27;20560;-27
2023/09/16 08:09:34;;;;;;;19.15;17.15;;;16.20;99.90;;;;;;5158137;27;20121;-27
2023/09/16 08:12:00;;;;;;;19.23;17.23;;;16.30;99.90;;;;;;5158048;27;20377;-29
2023/09/16 08:14:26;;;;;;;17.25;13.95;;;16.50;99.90;;;;;;5158267;27;20358;-27
2023/09/16 08:16:55;;;;;;;16.15;13.45;;;16.60;99.90;;;;;;5158265;27;20096;-27
2023/09/16 08:19:20;;;;;;;15.30;13.45;;;16.70;99.90;;;;;;5156418;27;20078;-28
2023/09/16 08:21:46;;;;;;;16.25;14.43;;;16.80;99.90;;;;;;5158490;27;20146;-27
2023/09/16 08:24:12;;;;;;;18.48;14.55;;;16.90;99.90;;;;;;5157598;27;20054;-27
2023/09/16 08:26:38;;;;;;;14.82;13.32;;;17.10;99.90;;;;;;5156857;27;20396;-27
2023/09/16 08:29:03;;;;;;;15.68;13.93;;;17.20;99.90;;;;;;5157780;27;20049;-27
2023/09/16 08:31:29;;;;;;;15.88;13.95;;;17.30;99.90;;;;;;5158306;27;20043;-27
2023/09/16 08:33:59;;;;;;;15.32;13.73;;;17.40;99.90;;;;;;5157875;27;20088;-28
2023/09/16 08:36:24;;;;;;;15.65;13.95;;;17.50;99.90;;;;;;5140019;27;20479;-27
2023/09/16 08:38:50;;;;;;;15.02;12.90;;;17.60;99.90;;;;;;5158150;27;20086;-27
2023/09/16 08:41:27;;;;;;;15.60;13.43;;;17.80;99.90;;;;;;5157491;27;20042;-27
2023/09/16 08:43:57;;;;;;;13.68;12.20;;;18.00;99.90;;;;;;5158264;27;20117;-27
2023/09/16 08:46:24;;;;;;;13.65;12.20;;;18.10;99.90;;;;;;5156122;27;20058;-27
2023/09/16 08:48:55;;;;;;;14.75;13.15;;;18.20;99.90;;;;;;5156128;27;20049;-27
2023/09/16 08:51:21;;;;;;;14.38;11.68;;;18.30;99.90;;;;;;5139099;27;20141;-27
2023/09/16 08:53:50;;;;;;;13.60;11.20;;;18.50;99.90;;;;;;5156223;27;20043;-28
2023/09/16 08:56:17;;;;;;;12.60;11.20;;;18.60;99.90;;;;;;5139377;27;20141;-29
2023/09/16 08:58:44;;;;;;;15.15;11.35;;;18.70;99.90;;;;;;5155965;27;20042;-27
2023/09/16 09:01:11;;;;;;;14.55;11.27;;;18.90;99.90;;;;;;5157115;27;20133;-27
2023/09/16 09:03:37;;;;;;;11.18;10.02;;;19.10;99.90;;;;;;5156855;27;20051;-27
2023/09/16 09:06:04;;;;;;;13.30;10.70;;;19.80;99.90;;;;;;5156952;27;20058;-27
2023/09/16 09:08:32;;;;;;;13.00;9.35;;;20.10;99.90;;;;;;5155800;27;20502;-29
2023/09/16 09:10:58;;;;;;;11.60;9.48;;;21.50;99.90;;;;;;5156927;27;20503;-28
2023/09/16 09:13:24;;;;;;;9.82;7.82;;;22.60;99.90;;;;;;5155770;27;20049;-27
2023/09/16 09:15:55;;;;;;;8.10;7.30;;;23.60;99.90;;;;;;5156862;27;20046;-27
2023/09/16 09:18:23;;;;;;;14.27;8.07;;;24.30;99.90;;;;;;5157683;27;20384;-28
2023/09/16 09:20:49;;;;;;;10.85;9.63;;;24.90;1.00;;;;;;5121894;27;20051;-28
2023/09/16 09:23:15;;;;;;;7.75;6.95;;;25.30;1.00;;;;;;5157055;27;20050;-28
2023/09/16 09:25:44;;;;;;;8.52;5.40;;;25.00;1.00;;;;;;5156619;27;20050;-28
2023/09/16 09:28:12;;;;;;;8.43;6.22;;;25.60;80.90;;;;;;5155405;27;20046;-27
2023/09/16 09:30:39;;;;;;;7.13;5.85;;;26.00;99.90;;;;;;5155602;27;20050;-28
2023/09/16 09:33:05;;;;;;;6.90;5.53;;;25.80;99.90;;;;;;5156463;27;20126;-28
2023/09/16 09:35:31;;;;;;;6.05;5.45;;;25.70;37.20;;;;;;5155670;27;20133;-28
2023/09/16 09:37:58;;;;;;;6.35;5.03;;;25.60;1.00;;;;;;5156911;27;20053;-28
2023/09/16 09:40:24;;;;;;;7.18;5.70;;;25.70;1.00;;;;;;5155415;27;20388;-27
2023/09/16 09:42:52;;;;;;;6.22;5.03;;;25.90;1.00;;;;;;5156313;27;20055;-28
2023/09/16 09:45:20;;;;;;;6.40;5.32;;;26.60;1.00;;;;;;5156275;27;20062;-28
2023/09/16 09:47:48;;;;;;;6.30;5.03;;;27.00;1.00;;;;;;5156176;27;20046;-28
2023/09/16 09:50:16;;;;;;;6.35;4.05;;;27.00;1.00;;;;;;5156111;27;20085;-28
2023/09/16 09:52:51;;;;;;;6.63;5.13;;;26.90;99.90;;;;;;5155719;27;20092;-28
2023/09/16 09:55:21;;;;;;;7.07;5.07;;;26.90;99.90;;;;;;5156636;27;20084;-28
2023/09/16 09:57:49;;;;;;;7.22;5.18;;;26.90;99.90;;;;;;5156064;27;20042;-28
2023/09/16 10:00:16;;;;;;;5.63;4.38;;;27.30;99.90;;;;;;5155004;27;20039;-28
2023/09/16 10:02:43;;;;;;;5.30;4.80;;;27.70;99.90;;;;;;5138298;27;20051;-28
2023/09/16 10:05:16;;;;;;;5.97;4.10;;;27.40;99.90;;;;;;5155205;27;20046;-28
2023/09/16 10:07:44;;;;;;;8.25;5.05;;;27.30;99.90;;;;;;5155575;27;20412;-28
2023/09/16 10:10:27;;;;;;;6.25;4.40;;;27.30;99.90;;;;;;5155765;27;20080;-28
2023/09/16 10:12:55;;;;;;;5.85;5.22;;;27.20;99.90;;;;;;5154543;27;20042;-28
2023/09/16 10:15:28;;;;;;;6.38;4.50;;;27.10;99.90;;;;;;5155637;27;20086;-28
2023/09/16 10:17:55;;;;;;;6.88;5.00;;;27.00;99.90;;;;;;5156145;27;20392;-28
2023/09/16 10:20:22;;;;;;;6.38;4.50;;;26.70;99.90;;;;;;5156342;27;20089;-28
2023/09/16 10:22:49;;;;;;;5.53;4.97;;;26.50;99.90;;;;;;5156344;27;20365;-28
2023/09/16 10:25:17;;;;;;;5.75;4.70;;;26.50;99.90;;;;;;5137388;27;20086;-28
2023/09/16 10:28:03;;;;;;;5.88;4.60;;;26.80;99.90;;;;;;5156105;27;20049;-28
2023/09/16 10:30:31;;;;;;;5.32;4.53;;;27.10;99.90;;;;;;5156353;27;20038;-28
2023/09/16 10:33:08;;;;;;;8.50;4.63;;;27.70;99.90;;;;;;5155432;27;20039;-28
2023/09/16 10:35:37;;;;;;;6.80;4.55;;;27.60;99.90;;;;;;5155367;27;20122;-28
2023/09/16 10:38:05;;;;;;;5.57;4.68;;;28.00;99.90;;;;;;5154623;27;20039;-28
2023/09/16 10:40:32;;;;;;;5.30;4.80;;;27.30;67.60;;;;;;5155221;27;20054;-28
2023/09/16 10:42:58;;;;;;;7.20;4.35;;;27.20;77.60;;;;;;5155803;27;20095;-28
2023/09/16 10:45:26;;;;;;;4.70;3.88;;;27.60;96.90;;;;;;5155309;27;20121;-28
2023/09/16 10:47:53;;;;;;;8.43;4.90;;;27.70;91.90;;;;;;5158993;27;20088;-28
2023/09/16 10:50:25;;;;;;;6.32;4.55;;;27.70;99.90;;;;;;5158927;27;20043;-28
2023/09/16 10:53:10;;;;;;;8.82;4.63;;;28.00;96.40;;;;;;5159536;27;20050;-28
2023/09/16 10:55:54;;;;;;;6.90;4.90;;;27.50;82.20;;;;;;5158221;27;20039;-29
2023/09/16 10:58:32;;;;;;;6.93;4.70;;;27.70;60.70;;;;;;5159323;27;20500;-28
2023/09/16 11:00:59;;;;;;;6.15;5.03;;;28.30;99.90;;;;;;5159367;27;20042;-29
2023/09/16 11:03:29;;;;;;;6.38;4.60;;;27.90;95.90;;;;;;5158032;27;20138;-28
2023/09/16 11:06:00;;;;;;;5.47;4.28;;;28.30;92.20;;;;;;5158180;27;20387;-28
2023/09/16 11:08:26;;;;;;;5.35;4.35;;;28.50;92.40;;;;;;5159652;27;20462;-28
2023/09/16 11:10:53;;;;;;;5.28;4.05;;;29.00;99.90;;;;;;5159573;27;20121;-29
2023/09/16 11:13:20;;;;;;;5.72;4.25;;;28.90;99.90;;;;;;5159214;27;20054;-27
2023/09/16 11:15:46;;;;;;;6.10;4.40;;;28.70;56.50;;;;;;5159742;27;20050;-27
2023/09/16 11:18:16;;;;;;;5.55;3.67;;;29.10;73.90;;;;;;5159143;27;20078;-27
2023/09/16 11:20:42;;;;;;;6.05;3.90;;;28.80;70.60;;;;;;5159108;27;20046;-27
2023/09/16 11:23:09;;;;;;;5.32;3.35;;;29.40;74.90;;;;;;5157874;27;20108;-27
2023/09/16 11:25:36;;;;;;;6.32;3.25;;;29.80;1.00;;;;;;5158993;27;20042;-26
2023/09/16 11:28:05;;;;;;;5.38;3.17;;;30.20;1.00;;;;;;5158968;27;20540;-27
2023/09/16 11:30:32;;;;;;;4.80;2.90;;;29.50;1.00;;;;;;5158918;27;20050;-27
2023/09/16 11:32:58;;;;;;;4.75;2.97;;;29.80;1.00;;;;;;5158141;27;20164;-27
2023/09/16 11:35:28;;;;;;;6.40;3.67;;;30.00;1.00;;;;;;5159861;27;20051;-27
2023/09/16 11:37:54;;;;;;;3.38;2.50;;;29.80;1.00;;;;;;5158828;27;20053;-27
2023/09/16 11:40:33;;;;;;;3.85;2.60;;;29.50;1.00;;;;;;5157724;27;20053;-27
2023/09/16 11:43:00;;;;;;;6.53;2.88;;;28.90;1.00;;;;;;5140244;27;20051;-27
2023/09/16 11:45:28;;;;;;;3.83;2.65;;;28.60;1.00;;;;;;5158338;27;20502;-27
2023/09/16 11:47:54;;;;;;;11.07;3.15;;;29.00;1.00;;;;;;5157882;27;20042;-27
2023/09/16 11:50:20;;;;;;;4.63;3.03;;;28.40;1.00;;;;;;5158409;27;20039;-28
2023/09/16 11:52:46;;;;;;;3.67;2.83;;;28.30;1.00;;;;;;5157791;27;20070;-27
2023/09/16 11:55:13;;;;;;;4.03;2.58;;;28.40;1.00;;;;;;5157193;27;20472;-27
2023/09/16 11:57:39;;;;;;;4.93;2.47;;;28.80;1.00;;;;;;5157875;27;20042;-27
2023/09/16 12:00:07;;;;;;;4.45;2.42;;;28.80;1.00;;;;;;5158235;27;20508;-27
2023/09/16 12:02:33;;;;;;;4.28;2.35;;;29.00;1.00;;;;;;5158086;27;20555;-28
2023/09/16 12:05:02;;;;;;;4.22;2.60;;;28.50;1.00;;;;;;5157670;27;20082;-27
2023/09/16 12:07:30;;;;;;;5.88;3.50;;;28.50;1.00;;;;;;5157019;27;20046;-27
2023/09/16 12:09:58;;;;;;;5.70;2.40;;;28.40;99.90;;;;;;5158205;27;20045;-27
2023/09/16 12:12:25;;;;;;;5.63;2.50;;;28.80;1.00;;;;;;5156915;27;20045;-27
2023/09/16 12:14:51;;;;;;;3.38;2.40;;;28.60;99.90;;;;;;5158556;27;20055;-27
2023/09/16 12:17:18;;;;;;;2.78;1.80;;;28.20;99.90;;;;;;5157695;27;20508;-27
2023/09/16 12:19:54;;;;;;;2.80;1.83;;;27.10;99.90;;;;;;5157968;27;20042;-27
2023/09/16 12:22:21;;;;;;;4.13;2.17;;;26.50;99.90;;;;;;5156639;27;20527;-27
2023/09/16 12:24:47;;;;;;;5.38;2.78;;;26.30;99.90;;;;;;5158651;27;20035;-27
2023/09/16 12:27:13;;;;;;;4.78;2.63;;;26.20;99.90;;;;;;5158372;27;20043;-27
2023/09/16 12:29:40;;;;;;;5.25;3.03;;;26.40;99.90;;;;;;5158127;27;20053;-27
2023/09/16 12:32:21;;;;;;;5.22;2.45;;;26.90;99.90;;;;;;5157690;27;20556;-27
2023/09/16 12:35:05;;;;;;;3.55;2.22;;;27.50;1.00;;;;;;5157672;27;20035;-27
2023/09/16 12:37:31;;;;;;;3.60;2.38;;;28.30;1.00;;;;;;5157886;27;20388;-27